Aérodrome :
LOGIN :

S'inscrire | Disclaimer

   EN    FR    IT 

 










Légende :    VFR   VFR Marginal   IFR   IFR Intensif   IFR Très Intensif
Visi : 
Plafond : 
>= 8 km
>= 3000ft
5 à 8 km
1000 à 3000 ft
1500m à 5 km
500 à 1000 ft
800 à 1500m
200 à 500 ft
< 800m
< 200 ft
Symboles :   Orages  Brouillard  Fortes neiges  Fortes précipitations  Vent > 20 kt
SIGMETs :   Divers  Orages  Givrage  Turbulence  Onde Orograph.  Cendres Volcan.







- Altitude de l'aérodrome : 79 ft
- Code IATA : SPU


LDSP - Split

DERNIER METAR :
  • 230730Z 07006KT 360V120 9999 VCTS FEW020CB BKN030 06/05 Q0999 TEMPO 4000 TSRA

METARs EXPIRÉS :
  • 230700Z 36004KT 320V040 9999 BKN032 06/03 Q0999 TEMPO -TSRA FEW030CB BKN032
  • 230630Z VRB01KT 9999 SCT035 05/03 Q0999 TEMPO -TSRA FEW030CB BKN035
  • 230600Z 35005KT 310V030 9999 FEW045 06/03 Q0999 NOSIG
  • 230530Z 32007KT 9999 FEW035 06/03 Q0999 NOSIG
  • 230500Z 32005KT 290V350 9999 -RA FEW010 SCT035 OVC045 06/03 Q0999 NOSIG

TAF TAF LDSP
Valide du 23 à 06h jusqu'au 24 à 06h UTC


230525Z 2306/2406 VRB02KT 9999 FEW020 BKN040 TX09/2313Z TN03/2405Z
PROB40
TEMPO 2306/2315 23010KT 3000 TSRA SCT020CB BKN035
BECMG 2317/2319 05010KT
Pas de NOTAMs connus pour ce terrain.



MET'MAP, la Météo Aéronautique d'un coup d'oeil ! - Copyright ORBIFLY Décembre 2007 - Disclaimer

ORBIFLY MET'MAP TEAM :

Programmation & Développement : Alexandra Zaïnal
Conception & Développement : Baudouin d'Aumeries
Co-Programmation & Développement : Marc-Olivier Méhu
Soutien technique & logistique : Manuel Goepfert

Contact : metmap@orbifly.com




SOURCES & CREDITS :

   NOAA